createdAt,value
2023-03-31T00:01:13.195Z,10.45
2023-03-31T00:04:05.632Z,10.42
2023-03-31T00:06:54.374Z,10.36
2023-03-31T00:09:41.943Z,10.40
2023-03-31T00:12:26.716Z,10.36
2023-03-31T00:15:11.593Z,10.37
2023-03-31T00:18:00.559Z,10.39
2023-03-31T00:20:46.437Z,10.41
2023-03-31T00:23:31.762Z,10.42
2023-03-31T00:26:16.668Z,10.42
2023-03-31T00:29:01.832Z,10.42
2023-03-31T00:31:47.165Z,10.45
2023-03-31T00:34:32.473Z,10.42
2023-03-31T00:37:17.531Z,10.47
2023-03-31T00:40:06.370Z,10.45
2023-03-31T00:42:52.074Z,10.43
2023-03-31T00:45:37.546Z,10.43
2023-03-31T00:48:24.150Z,10.42
2023-03-31T00:51:09.349Z,10.42
2023-03-31T00:53:59.865Z,10.42
2023-03-31T00:56:48.237Z,10.37
2023-03-31T00:59:38.664Z,10.39
2023-03-31T01:02:26.900Z,10.30
2023-03-31T01:05:12.014Z,10.31
2023-03-31T01:07:59.661Z,10.37
2023-03-31T01:10:51.422Z,10.31
2023-03-31T01:13:39.565Z,10.37
2023-03-31T01:16:24.753Z,10.41
2023-03-31T01:19:21.191Z,10.43
2023-03-31T01:22:45.893Z,10.42
2023-03-31T01:25:52.750Z,10.42
2023-03-31T01:28:53.037Z,10.43
2023-03-31T01:32:16.449Z,10.42
2023-03-31T01:35:31.464Z,10.44
2023-03-31T01:38:52.049Z,10.46
2023-03-31T01:42:21.699Z,10.45
2023-03-31T01:45:29.266Z,10.44
2023-03-31T01:48:21.272Z,10.37
2023-03-31T01:51:14.194Z,10.43
2023-03-31T01:54:27.593Z,10.42
2023-03-31T01:57:18.156Z,10.37
2023-03-31T02:00:11.460Z,10.40
2023-03-31T02:03:17.790Z,10.39
2023-03-31T02:06:11.397Z,10.39
2023-03-31T02:09:04.944Z,10.37
2023-03-31T02:11:51.848Z,10.32
2023-03-31T02:14:41.125Z,10.28
2023-03-31T02:17:32.688Z,10.33
2023-03-31T02:20:21.465Z,10.33
2023-03-31T02:23:06.545Z,10.34
2023-03-31T02:25:56.360Z,10.32
2023-03-31T02:28:41.478Z,10.31
2023-03-31T02:32:03.034Z,10.26
2023-03-31T02:34:48.810Z,10.26
2023-03-31T02:37:34.300Z,10.22
2023-03-31T02:40:22.883Z,10.31
2023-03-31T02:43:08.069Z,10.31
2023-03-31T02:45:53.460Z,10.30
2023-03-31T02:48:48.324Z,10.24
2023-03-31T02:51:48.745Z,10.30
2023-03-31T02:55:32.351Z,10.28
2023-03-31T02:58:31.653Z,10.30
2023-03-31T03:01:36.642Z,10.26
2023-03-31T03:04:25.685Z,10.26
2023-03-31T03:07:10.920Z,10.25
2023-03-31T03:10:23.881Z,10.15
2023-03-31T03:13:21.267Z,10.22
2023-03-31T03:16:19.194Z,10.21
2023-03-31T03:19:07.060Z,10.21
2023-03-31T03:21:52.428Z,10.21
2023-03-31T03:24:37.550Z,10.19
2023-03-31T03:27:22.869Z,10.20
2023-03-31T03:30:10.214Z,10.20
2023-03-31T03:32:56.102Z,10.18
2023-03-31T03:35:41.636Z,10.19
2023-03-31T03:38:26.441Z,10.12
2023-03-31T03:41:11.422Z,10.12
2023-03-31T03:43:56.595Z,10.07
2023-03-31T03:46:41.437Z,10.06
2023-03-31T03:49:26.604Z,10.09
2023-03-31T03:52:11.861Z,10.05
2023-03-31T03:54:57.195Z,10.04
2023-03-31T03:57:42.020Z,10.03
2023-03-31T04:00:27.127Z,9.99
2023-03-31T04:03:12.845Z,9.99
2023-03-31T04:05:58.008Z,9.98
2023-03-31T04:08:43.289Z,9.97
2023-03-31T04:11:28.302Z,9.90
2023-03-31T04:14:13.638Z,9.87
2023-03-31T04:16:58.675Z,9.91
2023-03-31T04:19:43.981Z,9.88
2023-03-31T04:22:34.870Z,9.89
2023-03-31T04:25:19.863Z,9.87
2023-03-31T04:28:07.024Z,9.85
2023-03-31T04:30:55.333Z,9.85
2023-03-31T04:33:40.591Z,9.83
2023-03-31T04:36:25.601Z,9.81
2023-03-31T04:39:13.501Z,9.79
2023-03-31T04:41:59.758Z,9.80
2023-03-31T04:44:44.894Z,9.74
2023-03-31T04:47:29.866Z,9.77
2023-03-31T04:50:17.033Z,9.75
2023-03-31T04:53:02.978Z,9.74
2023-03-31T04:55:49.124Z,9.67
2023-03-31T04:58:34.461Z,9.70
2023-03-31T05:01:19.787Z,9.68
2023-03-31T05:04:05.518Z,9.67
2023-03-31T05:06:51.168Z,9.66
2023-03-31T05:09:36.033Z,9.63
2023-03-31T05:12:20.953Z,9.59
2023-03-31T05:15:07.373Z,9.53
2023-03-31T05:17:53.493Z,9.50
2023-03-31T05:20:39.143Z,9.57
2023-03-31T05:23:24.028Z,9.51
2023-03-31T05:26:09.685Z,9.55
2023-03-31T05:28:54.792Z,9.56
2023-03-31T05:31:40.313Z,9.57
2023-03-31T05:34:25.545Z,9.57
2023-03-31T05:37:10.587Z,9.56
2023-03-31T05:39:55.635Z,9.55
2023-03-31T05:42:41.929Z,9.56
2023-03-31T05:45:27.080Z,9.50
2023-03-31T05:48:12.424Z,9.55
2023-03-31T05:50:59.073Z,9.53
2023-03-31T05:53:44.263Z,9.52
2023-03-31T05:56:29.479Z,9.49
2023-03-31T05:59:15.381Z,9.50
2023-03-31T06:02:00.772Z,9.49
2023-03-31T06:04:46.006Z,9.49
2023-03-31T06:07:31.602Z,9.49
2023-03-31T06:10:16.832Z,9.49
2023-03-31T06:13:02.176Z,9.49
2023-03-31T06:15:57.923Z,9.45
2023-03-31T06:18:43.538Z,9.49
2023-03-31T06:21:28.564Z,9.50
2023-03-31T06:24:13.742Z,9.51
2023-03-31T06:27:00.881Z,9.47
2023-03-31T06:29:45.750Z,9.52
2023-03-31T06:32:30.678Z,9.50
2023-03-31T06:35:15.542Z,9.50
2023-03-31T06:38:00.602Z,9.51
2023-03-31T06:40:45.551Z,9.50
2023-03-31T06:43:30.913Z,9.54
2023-03-31T06:46:16.576Z,9.52
2023-03-31T06:49:01.996Z,9.47
2023-03-31T06:51:47.244Z,9.56
2023-03-31T06:54:32.427Z,9.61
2023-03-31T06:57:17.739Z,9.69
2023-03-31T07:00:05.699Z,9.65
2023-03-31T07:02:51.213Z,9.69
2023-03-31T07:05:36.392Z,9.65
2023-03-31T07:08:21.790Z,9.70
2023-03-31T07:11:07.116Z,9.69
2023-03-31T07:13:52.410Z,9.71
2023-03-31T07:16:37.652Z,9.71
2023-03-31T07:19:22.997Z,9.69
2023-03-31T07:22:09.067Z,9.71
2023-03-31T07:24:53.978Z,9.70
2023-03-31T07:27:39.100Z,9.69
2023-03-31T07:30:24.665Z,9.69
2023-03-31T07:33:10.189Z,9.74
2023-03-31T07:36:10.136Z,9.74
2023-03-31T07:38:58.135Z,9.76
2023-03-31T07:41:43.259Z,9.78
2023-03-31T07:44:28.122Z,9.75
2023-03-31T07:47:13.327Z,9.69
2023-03-31T07:49:58.657Z,9.71
2023-03-31T07:52:46.698Z,9.70
2023-03-31T07:55:32.292Z,9.67
2023-03-31T07:58:17.390Z,9.69
2023-03-31T08:01:03.566Z,9.67
2023-03-31T08:03:48.934Z,9.68
2023-03-31T08:06:34.047Z,9.68
2023-03-31T08:09:19.762Z,9.67
2023-03-31T08:12:06.009Z,9.65
2023-03-31T08:14:51.623Z,9.65
2023-03-31T08:17:37.211Z,9.67
2023-03-31T08:20:22.177Z,9.67
2023-03-31T08:23:09.258Z,9.68
2023-03-31T08:25:54.417Z,9.75
2023-03-31T08:28:40.091Z,9.78
2023-03-31T08:31:27.472Z,9.80
2023-03-31T08:34:12.922Z,9.83
2023-03-31T08:36:58.101Z,9.85
2023-03-31T08:39:43.328Z,9.88
2023-03-31T08:42:50.138Z,9.93
2023-03-31T08:45:39.298Z,9.92
2023-03-31T08:48:32.572Z,9.94
2023-03-31T08:51:24.835Z,9.97
2023-03-31T08:54:17.589Z,9.98
2023-03-31T08:57:06.191Z,9.96
2023-03-31T08:59:52.546Z,10.08
2023-03-31T09:02:50.079Z,10.06
2023-03-31T09:06:12.544Z,10.10
2023-03-31T09:09:01.761Z,10.14
2023-03-31T09:11:56.614Z,10.20
2023-03-31T09:14:51.335Z,10.20
2023-03-31T09:17:45.848Z,10.20
2023-03-31T09:20:39.399Z,10.24
2023-03-31T09:23:33.854Z,10.35
2023-03-31T09:26:53.467Z,10.32
2023-03-31T09:29:59.914Z,10.32
2023-03-31T09:32:47.726Z,10.33
2023-03-31T09:35:33.799Z,10.41
2023-03-31T09:38:18.979Z,10.41
2023-03-31T09:41:05.390Z,10.43
2023-03-31T09:43:51.415Z,10.44
2023-03-31T09:46:38.461Z,10.42
2023-03-31T09:49:28.250Z,10.42
2023-03-31T09:52:32.314Z,10.41
2023-03-31T09:55:39.753Z,10.42
2023-03-31T09:58:25.517Z,10.40
2023-03-31T10:01:13.169Z,10.45
2023-03-31T10:03:58.506Z,10.50
2023-03-31T10:06:43.723Z,10.56
2023-03-31T10:09:34.265Z,10.75
2023-03-31T10:12:24.372Z,10.84
2023-03-31T10:15:21.244Z,10.79
2023-03-31T10:18:06.543Z,10.79
2023-03-31T10:20:52.968Z,10.72
2023-03-31T10:23:37.914Z,10.64
2023-03-31T10:26:27.142Z,10.67
2023-03-31T10:29:15.696Z,10.73
2023-03-31T10:32:09.065Z,10.77
2023-03-31T10:34:56.674Z,10.82
2023-03-31T10:37:41.705Z,10.90
2023-03-31T10:40:29.297Z,11.00
2023-03-31T10:43:18.096Z,11.09
2023-03-31T10:46:04.378Z,11.17
2023-03-31T10:48:51.396Z,11.12
2023-03-31T10:51:36.579Z,11.31
2023-03-31T10:54:21.876Z,11.38
2023-03-31T10:57:07.496Z,11.33
2023-03-31T11:00:30.164Z,11.32
2023-03-31T11:03:36.944Z,11.37
2023-03-31T11:06:31.457Z,11.32
2023-03-31T11:09:47.042Z,11.15
2023-03-31T11:12:44.658Z,11.13
2023-03-31T11:15:35.754Z,11.08
2023-03-31T11:19:12.146Z,10.91
2023-03-31T11:22:00.933Z,10.83
2023-03-31T11:25:05.910Z,10.88
2023-03-31T11:28:03.404Z,10.99
2023-03-31T11:31:06.198Z,11.23
2023-03-31T11:33:57.096Z,11.36
2023-03-31T11:36:50.686Z,11.37
2023-03-31T11:39:52.575Z,11.37
2023-03-31T11:42:51.808Z,11.36
2023-03-31T11:45:49.721Z,11.38
2023-03-31T11:49:01.491Z,11.32
2023-03-31T11:51:55.869Z,11.29
2023-03-31T11:54:56.065Z,11.26
2023-03-31T11:57:53.083Z,11.28
2023-03-31T12:00:46.746Z,11.31
2023-03-31T12:03:44.274Z,11.37
2023-03-31T12:06:39.979Z,11.35
2023-03-31T12:09:28.112Z,11.38
2023-03-31T12:12:19.890Z,11.37
2023-03-31T12:15:16.858Z,11.34
2023-03-31T12:18:13.327Z,11.38
2023-03-31T12:21:03.360Z,11.41
2023-03-31T12:23:48.713Z,11.41
2023-03-31T12:26:49.075Z,11.42
2023-03-31T12:29:37.967Z,11.66
2023-03-31T12:32:32.537Z,11.85
2023-03-31T12:35:24.074Z,12.09
2023-03-31T12:38:24.596Z,12.28
2023-03-31T12:41:24.384Z,12.47
2023-03-31T12:44:37.834Z,12.72
2023-03-31T12:47:38.094Z,12.84
2023-03-31T12:50:52.769Z,12.87
2023-03-31T12:53:57.327Z,12.91
2023-03-31T12:57:05.590Z,12.85
2023-03-31T13:00:26.871Z,12.89
2023-03-31T13:03:49.209Z,12.95
2023-03-31T13:06:34.245Z,12.93
2023-03-31T13:09:19.360Z,12.93
2023-03-31T13:12:09.597Z,12.98
2023-03-31T13:14:59.926Z,12.95
2023-03-31T13:17:59.458Z,12.83
2023-03-31T13:20:46.190Z,12.77
2023-03-31T13:23:35.437Z,12.97
2023-03-31T13:26:32.892Z,13.07
2023-03-31T13:29:24.464Z,13.11
2023-03-31T13:32:29.832Z,13.18
2023-03-31T13:35:24.503Z,13.44
2023-03-31T13:38:51.249Z,13.38
2023-03-31T13:42:13.419Z,13.23
2023-03-31T13:45:18.855Z,13.37
2023-03-31T13:48:24.230Z,14.04
2023-03-31T13:51:17.897Z,14.12
2023-03-31T13:54:18.818Z,13.84
2023-03-31T13:57:31.820Z,13.60
2023-03-31T14:00:27.248Z,13.33
2023-03-31T14:03:27.828Z,12.95
2023-03-31T14:06:26.661Z,12.79
2023-03-31T14:09:36.495Z,12.71
2023-03-31T14:12:37.985Z,12.92
2023-03-31T14:15:23.077Z,13.06
2023-03-31T14:18:12.997Z,13.08
2023-03-31T14:21:34.898Z,13.09
2023-03-31T14:25:01.183Z,12.87
2023-03-31T14:28:13.818Z,12.61
2023-03-31T14:31:20.439Z,12.45
2023-03-31T14:34:52.395Z,12.24
2023-03-31T14:37:37.375Z,12.17
2023-03-31T14:40:23.192Z,12.05
2023-03-31T14:43:18.710Z,11.98
2023-03-31T14:46:07.077Z,11.84
2023-03-31T14:48:52.613Z,11.73
2023-03-31T14:51:43.945Z,11.68
2023-03-31T14:54:37.748Z,11.72
2023-03-31T14:57:29.934Z,11.59
2023-03-31T15:00:21.803Z,11.51
2023-03-31T15:03:13.805Z,11.45
2023-03-31T15:06:02.816Z,11.45
2023-03-31T15:08:47.811Z,11.46
2023-03-31T15:11:33.094Z,11.43
2023-03-31T15:14:20.693Z,11.39
2023-03-31T15:17:06.118Z,11.35
2023-03-31T15:19:59.966Z,11.37
2023-03-31T15:22:44.997Z,11.32
2023-03-31T15:25:41.236Z,11.31
2023-03-31T15:28:32.282Z,11.30
2023-03-31T15:31:18.815Z,11.28
2023-03-31T15:34:34.679Z,11.23
2023-03-31T15:37:28.734Z,11.22
2023-03-31T15:40:30.544Z,11.18
2023-03-31T15:43:25.879Z,11.12
2023-03-31T15:46:18.803Z,11.08
2023-03-31T15:49:05.880Z,11.11
2023-03-31T15:51:53.174Z,11.06
2023-03-31T15:54:41.395Z,11.09
2023-03-31T15:57:35.009Z,11.06
2023-03-31T16:00:46.652Z,11.03
2023-03-31T16:03:38.439Z,10.95
2023-03-31T16:06:26.710Z,10.99
2023-03-31T16:09:17.616Z,10.91
2023-03-31T16:12:05.432Z,10.84
2023-03-31T16:14:56.668Z,10.84
2023-03-31T16:17:49.050Z,10.85
2023-03-31T16:20:45.795Z,10.85
2023-03-31T16:23:34.241Z,10.86
2023-03-31T16:26:24.257Z,10.80
2023-03-31T16:29:09.520Z,10.77
2023-03-31T16:32:15.401Z,10.70
2023-03-31T16:35:03.093Z,10.69
2023-03-31T16:37:48.015Z,10.62
2023-03-31T16:40:42.569Z,10.57
2023-03-31T16:43:31.506Z,10.56
2023-03-31T16:46:16.485Z,10.53
2023-03-31T16:49:01.594Z,10.50
2023-03-31T16:51:46.917Z,10.48
2023-03-31T16:54:32.595Z,10.45
2023-03-31T16:57:17.918Z,10.43
2023-03-31T17:00:03.849Z,10.46
2023-03-31T17:02:49.379Z,10.46
2023-03-31T17:05:43.800Z,10.43
2023-03-31T17:08:28.725Z,10.44
2023-03-31T17:11:14.667Z,10.36
2023-03-31T17:14:00.351Z,10.33
2023-03-31T17:19:50.601Z,10.19
2023-03-31T17:22:36.380Z,10.30
2023-03-31T17:25:21.996Z,10.28
2023-03-31T17:28:06.960Z,10.23
2023-03-31T17:30:52.229Z,10.20
2023-03-31T17:33:37.512Z,10.15
2023-03-31T17:36:22.572Z,10.17
2023-03-31T17:39:07.541Z,10.11
2023-03-31T17:41:52.406Z,10.11
2023-03-31T17:44:37.745Z,10.16
2023-03-31T17:47:22.867Z,10.14
2023-03-31T17:50:08.899Z,10.15
2023-03-31T17:52:55.683Z,10.18
2023-03-31T17:55:40.886Z,10.13
2023-03-31T17:58:27.042Z,10.14
2023-03-31T18:01:13.517Z,10.15
2023-03-31T18:03:59.451Z,10.14
2023-03-31T18:06:44.959Z,10.11
2023-03-31T18:09:31.348Z,10.16
2023-03-31T18:12:16.732Z,10.16
2023-03-31T18:15:04.024Z,10.11
2023-03-31T18:17:48.972Z,10.10
2023-03-31T18:20:34.231Z,10.09
2023-03-31T18:23:20.181Z,10.06
2023-03-31T18:26:10.874Z,10.05
2023-03-31T18:28:55.942Z,10.04
2023-03-31T18:31:41.788Z,10.07
2023-03-31T18:34:27.835Z,10.05
2023-03-31T18:37:13.308Z,10.01
2023-03-31T18:39:58.610Z,9.99
2023-03-31T18:42:43.726Z,9.99
2023-03-31T18:45:30.621Z,9.97
2023-03-31T18:48:17.881Z,9.96
2023-03-31T18:51:04.463Z,9.95
2023-03-31T18:53:49.441Z,9.93
2023-03-31T18:56:34.297Z,9.93
2023-03-31T18:59:19.547Z,9.94
2023-03-31T19:02:04.710Z,9.94
2023-03-31T19:04:49.854Z,9.86
2023-03-31T19:07:35.814Z,9.93
2023-03-31T19:10:20.886Z,9.90
2023-03-31T19:13:06.450Z,9.86
2023-03-31T19:15:51.484Z,9.87
2023-03-31T19:18:37.501Z,9.83
2023-03-31T19:21:22.946Z,9.83
2023-03-31T19:24:09.200Z,9.84
2023-03-31T19:26:56.542Z,9.85
2023-03-31T19:29:41.674Z,9.79
2023-03-31T19:32:27.201Z,9.83
2023-03-31T19:35:12.524Z,9.80
2023-03-31T19:37:57.730Z,9.72
2023-03-31T19:40:43.132Z,9.74
2023-03-31T19:43:29.585Z,9.74
2023-03-31T19:46:16.115Z,9.78
2023-03-31T19:49:01.447Z,9.78
2023-03-31T19:51:46.657Z,9.80
2023-03-31T19:54:32.186Z,9.71
2023-03-31T19:57:17.164Z,9.75
2023-03-31T20:00:04.908Z,9.76
2023-03-31T20:02:50.640Z,9.79
2023-03-31T20:05:35.991Z,9.74
2023-03-31T20:08:21.206Z,9.75
2023-03-31T20:11:09.800Z,9.72
2023-03-31T20:13:56.167Z,9.73
2023-03-31T20:16:41.670Z,9.63
2023-03-31T20:19:27.759Z,9.71
2023-03-31T20:22:13.121Z,9.75
2023-03-31T20:24:58.357Z,9.76
2023-03-31T20:27:43.671Z,9.71
2023-03-31T20:30:28.615Z,9.74
2023-03-31T20:33:13.501Z,9.69
2023-03-31T20:36:13.526Z,9.69
2023-03-31T20:39:00.270Z,9.66
2023-03-31T20:41:45.879Z,9.75
2023-03-31T20:44:30.802Z,9.73
2023-03-31T20:47:15.839Z,9.72
2023-03-31T20:50:01.620Z,9.67
2023-03-31T20:52:47.649Z,9.77
2023-03-31T20:55:32.935Z,9.78
2023-03-31T20:58:18.606Z,9.82
2023-03-31T21:01:05.010Z,9.78
2023-03-31T21:03:50.247Z,9.76
2023-03-31T21:06:41.907Z,9.78
2023-03-31T21:09:27.239Z,9.76
2023-03-31T21:12:12.249Z,9.75
2023-03-31T21:14:57.228Z,9.81
2023-03-31T21:17:42.648Z,9.80
2023-03-31T21:20:27.819Z,9.80
2023-03-31T21:23:12.721Z,9.84
2023-03-31T21:26:00.248Z,9.81
2023-03-31T21:28:46.332Z,9.72
2023-03-31T21:31:31.813Z,9.75
2023-03-31T21:34:17.148Z,9.75
2023-03-31T21:37:02.377Z,9.78
2023-03-31T21:39:47.663Z,9.77
2023-03-31T21:42:36.295Z,9.80
2023-03-31T21:45:21.834Z,9.81
2023-03-31T21:48:09.384Z,9.81
2023-03-31T21:50:55.273Z,9.85
2023-03-31T21:53:40.806Z,9.87
2023-03-31T21:56:28.350Z,9.92
2023-03-31T21:59:17.363Z,9.89
2023-03-31T22:02:02.488Z,9.81
2023-03-31T22:04:47.658Z,9.87
2023-03-31T22:07:32.949Z,9.92
2023-03-31T22:10:18.292Z,9.92
2023-03-31T22:13:03.568Z,9.91
2023-03-31T22:15:48.739Z,9.90
2023-03-31T22:18:33.895Z,9.89
2023-03-31T22:21:22.122Z,9.86
2023-03-31T22:24:11.602Z,9.93
2023-03-31T22:26:56.890Z,9.94
2023-03-31T22:29:41.974Z,9.96
2023-03-31T22:32:27.573Z,9.96
2023-03-31T22:35:13.010Z,9.99
2023-03-31T22:37:58.118Z,9.99
2023-03-31T22:40:43.192Z,10.00
2023-03-31T22:43:29.059Z,9.99
2023-03-31T22:46:15.033Z,10.08
2023-03-31T22:49:00.269Z,10.10
2023-03-31T22:51:45.277Z,10.10
2023-03-31T22:54:30.594Z,10.05
2023-03-31T22:57:16.965Z,10.07
2023-03-31T23:00:02.089Z,9.99
2023-03-31T23:02:47.468Z,9.99
2023-03-31T23:05:34.373Z,10.02
2023-03-31T23:08:19.682Z,10.03
2023-03-31T23:11:08.178Z,9.99
2023-03-31T23:13:53.287Z,9.99
2023-03-31T23:16:38.515Z,9.98
2023-03-31T23:19:24.209Z,10.01
2023-03-31T23:22:09.811Z,10.02
2023-03-31T23:24:54.905Z,10.06
2023-03-31T23:27:39.939Z,10.06
2023-03-31T23:30:25.634Z,10.01
2023-03-31T23:33:10.931Z,9.98
2023-03-31T23:36:02.409Z,9.96
2023-03-31T23:38:49.462Z,10.03
2023-03-31T23:41:34.708Z,9.97
2023-03-31T23:44:19.685Z,10.01
2023-03-31T23:47:05.939Z,10.02
2023-03-31T23:49:51.120Z,9.95
2023-03-31T23:52:36.356Z,10.00
2023-03-31T23:55:22.137Z,10.01
2023-03-31T23:58:07.785Z,10.05
